sensor_id;sensor_type;location;lat;lon;timestamp;pressure;altitude;pressure_sealevel;temperature;humidity
16120;BME280;12670;53.502;10.252;2023-02-08T00:02:44;103756.91;;;0.63;86.26
16120;BME280;12670;53.502;10.252;2023-02-08T00:05:46;103757.97;;;0.49;85.87
16120;BME280;12670;53.502;10.252;2023-02-08T00:08:49;103753.56;;;0.48;87.20
16120;BME280;12670;53.502;10.252;2023-02-08T00:11:52;103758.41;;;0.58;86.60
16120;BME280;12670;53.502;10.252;2023-02-08T00:14:55;103751.53;;;0.60;86.16
16120;BME280;12670;53.502;10.252;2023-02-08T00:17:58;103733.38;;;0.63;86.39
16120;BME280;12670;53.502;10.252;2023-02-08T00:21:06;103726.72;;;0.70;85.67
16120;BME280;12670;53.502;10.252;2023-02-08T00:24:09;103729.00;;;0.62;85.92
16120;BME280;12670;53.502;10.252;2023-02-08T00:27:11;103731.97;;;0.52;86.17
16120;BME280;12670;53.502;10.252;2023-02-08T00:30:15;103727.66;;;0.52;86.16
16120;BME280;12670;53.502;10.252;2023-02-08T00:33:18;103720.56;;;0.50;86.14
16120;BME280;12670;53.502;10.252;2023-02-08T00:36:21;103723.53;;;0.58;85.98
16120;BME280;12670;53.502;10.252;2023-02-08T00:39:23;103729.94;;;0.64;85.62
16120;BME280;12670;53.502;10.252;2023-02-08T00:42:26;103725.78;;;0.50;86.20
16120;BME280;12670;53.502;10.252;2023-02-08T00:45:31;103730.72;;;0.44;86.02
16120;BME280;12670;53.502;10.252;2023-02-08T00:48:34;103723.28;;;0.34;85.70
16120;BME280;12670;53.502;10.252;2023-02-08T00:51:37;103727.06;;;0.22;86.00
16120;BME280;12670;53.502;10.252;2023-02-08T00:54:39;103705.38;;;0.41;86.26
16120;BME280;12670;53.502;10.252;2023-02-08T00:57:43;103701.16;;;0.45;85.83
16120;BME280;12670;53.502;10.252;2023-02-08T01:00:49;103699.50;;;0.47;86.53
16120;BME280;12670;53.502;10.252;2023-02-08T01:03:52;103699.72;;;0.51;85.68
16120;BME280;12670;53.502;10.252;2023-02-08T01:06:54;103708.63;;;0.55;85.95
16120;BME280;12670;53.502;10.252;2023-02-08T01:09:57;103710.56;;;0.59;85.62
16120;BME280;12670;53.502;10.252;2023-02-08T01:13:00;103706.56;;;0.48;85.26
16120;BME280;12670;53.502;10.252;2023-02-08T01:16:10;103703.41;;;0.55;85.27
16120;BME280;12670;53.502;10.252;2023-02-08T01:19:13;103698.91;;;0.52;86.27
16120;BME280;12670;53.502;10.252;2023-02-08T01:22:18;103697.72;;;0.46;85.54
16120;BME280;12670;53.502;10.252;2023-02-08T01:25:21;103696.38;;;0.54;85.30
16120;BME280;12670;53.502;10.252;2023-02-08T01:28:24;103703.97;;;0.67;84.99
16120;BME280;12670;53.502;10.252;2023-02-08T01:31:29;103704.91;;;0.50;85.41
16120;BME280;12670;53.502;10.252;2023-02-08T01:34:32;103703.66;;;0.42;85.73
16120;BME280;12670;53.502;10.252;2023-02-08T01:37:35;103708.44;;;0.33;85.86
16120;BME280;12670;53.502;10.252;2023-02-08T01:40:38;103698.44;;;0.24;86.47
16120;BME280;12670;53.502;10.252;2023-02-08T01:43:59;103700.31;;;0.26;86.50
16120;BME280;12670;53.502;10.252;2023-02-08T01:47:04;103700.00;;;0.20;86.33
16120;BME280;12670;53.502;10.252;2023-02-08T01:50:07;103697.47;;;0.22;86.26
16120;BME280;12670;53.502;10.252;2023-02-08T01:53:10;103701.19;;;0.27;85.90
16120;BME280;12670;53.502;10.252;2023-02-08T01:56:18;103708.28;;;0.30;86.10
16120;BME280;12670;53.502;10.252;2023-02-08T01:59:25;103702.38;;;0.16;86.54
16120;BME280;12670;53.502;10.252;2023-02-08T02:02:30;103707.84;;;0.20;86.71
16120;BME280;12670;53.502;10.252;2023-02-08T02:05:38;103719.41;;;0.08;86.73
16120;BME280;12670;53.502;10.252;2023-02-08T02:08:46;103716.03;;;0.10;86.62
16120;BME280;12670;53.502;10.252;2023-02-08T02:11:52;103715.97;;;0.09;86.54
16120;BME280;12670;53.502;10.252;2023-02-08T02:14:55;103715.69;;;0.20;85.88
16120;BME280;12670;53.502;10.252;2023-02-08T02:18:00;103704.34;;;0.20;86.44
16120;BME280;12670;53.502;10.252;2023-02-08T02:21:17;103710.16;;;0.32;85.58
16120;BME280;12670;53.502;10.252;2023-02-08T02:28:25;103703.75;;;0.25;86.35
16120;BME280;12670;53.502;10.252;2023-02-08T02:35:11;103695.75;;;0.05;85.86
16120;BME280;12670;53.502;10.252;2023-02-08T02:38:22;103701.19;;;0.09;85.97
16120;BME280;12670;53.502;10.252;2023-02-08T02:41:37;103692.13;;;0.01;85.79
16120;BME280;12670;53.502;10.252;2023-02-08T02:45:06;103707.78;;;0.01;86.21
16120;BME280;12670;53.502;10.252;2023-02-08T02:48:19;103700.44;;;-0.06;86.01
16120;BME280;12670;53.502;10.252;2023-02-08T02:51:26;103700.00;;;-0.15;85.37
16120;BME280;12670;53.502;10.252;2023-02-08T02:54:32;103698.06;;;-0.19;85.17
16120;BME280;12670;53.502;10.252;2023-02-08T02:57:41;103697.91;;;-0.22;85.23
16120;BME280;12670;53.502;10.252;2023-02-08T03:00:51;103707.47;;;-0.23;86.20
16120;BME280;12670;53.502;10.252;2023-02-08T03:03:56;103704.44;;;-0.31;86.05
16120;BME280;12670;53.502;10.252;2023-02-08T03:07:05;103704.75;;;-0.24;85.75
16120;BME280;12670;53.502;10.252;2023-02-08T03:10:21;103711.78;;;-0.23;85.57
16120;BME280;12670;53.502;10.252;2023-02-08T03:13:31;103701.38;;;-0.40;85.54
16120;BME280;12670;53.502;10.252;2023-02-08T03:16:48;103700.06;;;-0.32;85.40
16120;BME280;12670;53.502;10.252;2023-02-08T03:20:03;103706.41;;;-0.27;85.26
16120;BME280;12670;53.502;10.252;2023-02-08T03:23:12;103697.31;;;-0.35;86.13
16120;BME280;12670;53.502;10.252;2023-02-08T03:26:19;103705.91;;;-0.36;85.78
16120;BME280;12670;53.502;10.252;2023-02-08T03:29:35;103716.03;;;-0.42;85.54
16120;BME280;12670;53.502;10.252;2023-02-08T03:32:43;103718.31;;;-0.32;86.21
16120;BME280;12670;53.502;10.252;2023-02-08T03:35:52;103724.03;;;-0.39;86.00
16120;BME280;12670;53.502;10.252;2023-02-08T03:38:59;103733.03;;;-0.50;86.01
16120;BME280;12670;53.502;10.252;2023-02-08T03:42:07;103731.50;;;-0.63;86.18
16120;BME280;12670;53.502;10.252;2023-02-08T03:45:15;103735.81;;;-0.63;86.37
16120;BME280;12670;53.502;10.252;2023-02-08T03:48:21;103735.97;;;-0.60;86.55
16120;BME280;12670;53.502;10.252;2023-02-08T03:51:29;103735.63;;;-0.50;86.07
16120;BME280;12670;53.502;10.252;2023-02-08T03:54:35;103731.50;;;-0.63;85.51
16120;BME280;12670;53.502;10.252;2023-02-08T03:57:45;103725.41;;;-0.63;85.88
16120;BME280;12670;53.502;10.252;2023-02-08T04:00:55;103732.22;;;-0.65;85.49
16120;BME280;12670;53.502;10.252;2023-02-08T04:03:59;103722.09;;;-0.59;85.54
16120;BME280;12670;53.502;10.252;2023-02-08T04:07:03;103715.94;;;-0.77;85.98
16120;BME280;12670;53.502;10.252;2023-02-08T04:10:07;103722.78;;;-0.79;86.44
16120;BME280;12670;53.502;10.252;2023-02-08T04:13:09;103724.13;;;-0.88;86.68
16120;BME280;12670;53.502;10.252;2023-02-08T04:16:12;103727.38;;;-0.75;86.29
16120;BME280;12670;53.502;10.252;2023-02-08T04:19:15;103729.78;;;-0.78;85.85
16120;BME280;12670;53.502;10.252;2023-02-08T04:22:19;103732.78;;;-0.71;85.83
16120;BME280;12670;53.502;10.252;2023-02-08T04:25:22;103727.75;;;-0.68;84.65
16120;BME280;12670;53.502;10.252;2023-02-08T04:28:24;103721.66;;;-0.85;85.50
16120;BME280;12670;53.502;10.252;2023-02-08T04:31:27;103726.63;;;-0.89;86.30
16120;BME280;12670;53.502;10.252;2023-02-08T04:34:30;103732.56;;;-0.92;85.90
16120;BME280;12670;53.502;10.252;2023-02-08T04:37:34;103726.28;;;-0.95;86.27
16120;BME280;12670;53.502;10.252;2023-02-08T04:40:36;103732.06;;;-1.01;85.71
16120;BME280;12670;53.502;10.252;2023-02-08T04:43:40;103715.47;;;-0.87;85.90
16120;BME280;12670;53.502;10.252;2023-02-08T04:46:42;103712.63;;;-0.91;86.24
16120;BME280;12670;53.502;10.252;2023-02-08T04:49:45;103716.56;;;-0.65;86.16
16120;BME280;12670;53.502;10.252;2023-02-08T04:52:49;103717.47;;;-0.65;85.42
16120;BME280;12670;53.502;10.252;2023-02-08T04:55:51;103720.25;;;-0.78;85.17
16120;BME280;12670;53.502;10.252;2023-02-08T04:58:54;103719.88;;;-0.69;84.63
16120;BME280;12670;53.502;10.252;2023-02-08T05:01:57;103713.13;;;-0.82;86.13
16120;BME280;12670;53.502;10.252;2023-02-08T05:05:00;103715.63;;;-0.84;85.31
16120;BME280;12670;53.502;10.252;2023-02-08T05:08:04;103705.44;;;-0.95;85.23
16120;BME280;12670;53.502;10.252;2023-02-08T05:11:07;103695.34;;;-0.89;85.92
16120;BME280;12670;53.502;10.252;2023-02-08T05:14:10;103703.25;;;-0.88;84.66
16120;BME280;12670;53.502;10.252;2023-02-08T05:17:13;103693.88;;;-0.84;85.69
16120;BME280;12670;53.502;10.252;2023-02-08T05:20:15;103694.63;;;-0.87;84.97
16120;BME280;12670;53.502;10.252;2023-02-08T05:23:19;103693.97;;;-0.99;85.94
16120;BME280;12670;53.502;10.252;2023-02-08T05:26:22;103692.59;;;-0.92;84.86
16120;BME280;12670;53.502;10.252;2023-02-08T05:29:25;103697.88;;;-0.91;85.45
16120;BME280;12670;53.502;10.252;2023-02-08T05:32:27;103699.41;;;-0.94;85.75
16120;BME280;12670;53.502;10.252;2023-02-08T05:35:30;103696.81;;;-0.94;84.64
16120;BME280;12670;53.502;10.252;2023-02-08T05:38:34;103698.69;;;-0.92;84.71
16120;BME280;12670;53.502;10.252;2023-02-08T05:41:36;103698.25;;;-0.83;85.20
16120;BME280;12670;53.502;10.252;2023-02-08T05:44:39;103700.56;;;-0.89;84.89
16120;BME280;12670;53.502;10.252;2023-02-08T05:47:42;103710.91;;;-1.07;86.08
16120;BME280;12670;53.502;10.252;2023-02-08T05:50:47;103705.69;;;-0.91;84.58
16120;BME280;12670;53.502;10.252;2023-02-08T05:53:51;103701.63;;;-1.02;84.97
16120;BME280;12670;53.502;10.252;2023-02-08T05:56:54;103698.38;;;-1.14;85.91
16120;BME280;12670;53.502;10.252;2023-02-08T05:59:56;103694.47;;;-1.22;86.03
16120;BME280;12670;53.502;10.252;2023-02-08T06:02:59;103689.97;;;-1.25;85.99
16120;BME280;12670;53.502;10.252;2023-02-08T06:06:02;103695.91;;;-1.27;86.08
16120;BME280;12670;53.502;10.252;2023-02-08T06:09:06;103691.94;;;-1.21;86.80
16120;BME280;12670;53.502;10.252;2023-02-08T06:12:09;103697.53;;;-1.13;86.04
16120;BME280;12670;53.502;10.252;2023-02-08T06:15:12;103699.44;;;-1.11;85.79
16120;BME280;12670;53.502;10.252;2023-02-08T06:18:14;103699.34;;;-0.96;85.67
16120;BME280;12670;53.502;10.252;2023-02-08T06:21:17;103703.97;;;-0.90;84.54
16120;BME280;12670;53.502;10.252;2023-02-08T06:24:21;103694.63;;;-0.87;85.77
16120;BME280;12670;53.502;10.252;2023-02-08T06:27:25;103701.75;;;-0.66;85.63
16120;BME280;12670;53.502;10.252;2023-02-08T06:30:28;103708.69;;;-0.67;85.48
16120;BME280;12670;53.502;10.252;2023-02-08T06:33:31;103706.00;;;-0.68;85.09
16120;BME280;12670;53.502;10.252;2023-02-08T06:36:33;103708.50;;;-0.54;84.95
16120;BME280;12670;53.502;10.252;2023-02-08T06:39:37;103708.50;;;-0.54;84.55
16120;BME280;12670;53.502;10.252;2023-02-08T06:42:40;103714.19;;;-0.44;84.33
16120;BME280;12670;53.502;10.252;2023-02-08T06:45:43;103715.59;;;-0.51;85.14
16120;BME280;12670;53.502;10.252;2023-02-08T06:48:46;103714.69;;;-0.51;84.97
16120;BME280;12670;53.502;10.252;2023-02-08T06:51:49;103707.19;;;-0.45;85.44
16120;BME280;12670;53.502;10.252;2023-02-08T06:54:53;103700.09;;;-0.48;84.94
16120;BME280;12670;53.502;10.252;2023-02-08T06:57:55;103705.47;;;-0.45;84.98
16120;BME280;12670;53.502;10.252;2023-02-08T07:00:58;103707.13;;;-0.47;85.95
16120;BME280;12670;53.502;10.252;2023-02-08T07:04:01;103724.88;;;-0.40;85.25
16120;BME280;12670;53.502;10.252;2023-02-08T07:07:03;103729.56;;;-0.33;84.45
16120;BME280;12670;53.502;10.252;2023-02-08T07:10:07;103736.88;;;-0.25;84.65
16120;BME280;12670;53.502;10.252;2023-02-08T07:13:10;103726.97;;;-0.33;84.84
16120;BME280;12670;53.502;10.252;2023-02-08T07:16:13;103723.47;;;-0.33;84.44
16120;BME280;12670;53.502;10.252;2023-02-08T07:19:16;103716.59;;;-0.31;85.15
16120;BME280;12670;53.502;10.252;2023-02-08T07:22:19;103707.88;;;-0.32;84.56
16120;BME280;12670;53.502;10.252;2023-02-08T07:25:23;103708.50;;;-0.54;84.63
16120;BME280;12670;53.502;10.252;2023-02-08T07:28:26;103707.25;;;-0.44;86.46
16120;BME280;12670;53.502;10.252;2023-02-08T07:31:28;103700.16;;;-0.81;87.11
16120;BME280;12670;53.502;10.252;2023-02-08T07:34:33;103709.22;;;-0.40;86.40
16120;BME280;12670;53.502;10.252;2023-02-08T07:37:36;103707.66;;;-0.18;86.61
16120;BME280;12670;53.502;10.252;2023-02-08T07:40:40;103697.91;;;-0.22;86.17
16120;BME280;12670;53.502;10.252;2023-02-08T07:43:43;103693.88;;;-0.16;86.44
16120;BME280;12670;53.502;10.252;2023-02-08T07:46:45;103698.81;;;-0.04;85.67
16120;BME280;12670;53.502;10.252;2023-02-08T07:49:48;103697.81;;;0.12;84.82
16120;BME280;12670;53.502;10.252;2023-02-08T07:52:51;103690.75;;;0.09;83.92
16120;BME280;12670;53.502;10.252;2023-02-08T07:55:55;103697.75;;;0.10;84.35
16120;BME280;12670;53.502;10.252;2023-02-08T07:58:57;103700.13;;;0.23;83.54
16120;BME280;12670;53.502;10.252;2023-02-08T08:02:00;103696.56;;;0.21;84.16
16120;BME280;12670;53.502;10.252;2023-02-08T08:05:03;103700.47;;;0.30;83.86
16120;BME280;12670;53.502;10.252;2023-02-08T08:08:06;103694.41;;;0.31;84.01
16120;BME280;12670;53.502;10.252;2023-02-08T08:11:10;103690.16;;;0.33;84.09
16120;BME280;12670;53.502;10.252;2023-02-08T08:14:12;103690.44;;;0.39;83.43
16120;BME280;12670;53.502;10.252;2023-02-08T08:17:15;103689.69;;;0.41;83.84
16120;BME280;12670;53.502;10.252;2023-02-08T08:20:18;103678.50;;;0.44;83.23
16120;BME280;12670;53.502;10.252;2023-02-08T08:23:21;103679.38;;;0.44;82.62
16120;BME280;12670;53.502;10.252;2023-02-08T08:26:25;103687.28;;;0.46;82.30
16120;BME280;12670;53.502;10.252;2023-02-08T08:29:30;103687.91;;;0.77;81.47
16120;BME280;12670;53.502;10.252;2023-02-08T08:32:32;103688.56;;;0.73;82.05
16120;BME280;12670;53.502;10.252;2023-02-08T08:35:35;103685.63;;;0.66;81.42
16120;BME280;12670;53.502;10.252;2023-02-08T08:38:38;103676.13;;;0.68;77.86
16120;BME280;12670;53.502;10.252;2023-02-08T08:41:42;103677.50;;;0.79;77.50
16120;BME280;12670;53.502;10.252;2023-02-08T08:44:45;103678.50;;;0.44;80.55
16120;BME280;12670;53.502;10.252;2023-02-08T08:47:47;103679.78;;;0.91;80.23
16120;BME280;12670;53.502;10.252;2023-02-08T08:50:52;103677.94;;;0.88;80.23
16120;BME280;12670;53.502;10.252;2023-02-08T08:53:55;103682.91;;;1.22;78.59
16120;BME280;12670;53.502;10.252;2023-02-08T08:56:59;103687.72;;;1.32;77.92
16120;BME280;12670;53.502;10.252;2023-02-08T09:00:03;103680.97;;;1.38;76.59
16120;BME280;12670;53.502;10.252;2023-02-08T09:03:06;103678.03;;;1.51;75.96
16120;BME280;12670;53.502;10.252;2023-02-08T09:06:08;103672.03;;;1.74;75.25
16120;BME280;12670;53.502;10.252;2023-02-08T09:09:11;103676.19;;;1.69;75.80
16120;BME280;12670;53.502;10.252;2023-02-08T09:12:15;103664.09;;;1.71;76.26
16120;BME280;12670;53.502;10.252;2023-02-08T09:15:17;103667.84;;;1.78;74.91
16120;BME280;12670;53.502;10.252;2023-02-08T09:18:20;103667.56;;;1.93;75.02
16120;BME280;12670;53.502;10.252;2023-02-08T09:21:23;103675.03;;;2.04;73.44
16120;BME280;12670;53.502;10.252;2023-02-08T09:24:26;103661.94;;;2.04;72.15
16120;BME280;12670;53.502;10.252;2023-02-08T09:27:30;103662.31;;;1.93;71.20
16120;BME280;12670;53.502;10.252;2023-02-08T09:30:33;103664.75;;;2.09;70.12
16120;BME280;12670;53.502;10.252;2023-02-08T09:33:35;103671.53;;;2.26;71.40
16120;BME280;12670;53.502;10.252;2023-02-08T09:36:39;103658.34;;;2.23;70.89
16120;BME280;12670;53.502;10.252;2023-02-08T09:39:42;103653.66;;;2.38;71.70
16120;BME280;12670;53.502;10.252;2023-02-08T09:42:51;103657.38;;;2.44;69.83
16120;BME280;12670;53.502;10.252;2023-02-08T09:46:00;103648.06;;;2.52;68.92
16120;BME280;12670;53.502;10.252;2023-02-08T09:49:09;103654.16;;;2.75;69.18
16120;BME280;12670;53.502;10.252;2023-02-08T09:52:20;103657.00;;;2.57;64.30
16120;BME280;12670;53.502;10.252;2023-02-08T09:55:35;103663.91;;;3.01;66.74
16120;BME280;12670;53.502;10.252;2023-02-08T09:58:42;103667.19;;;2.96;65.95
16120;BME280;12670;53.502;10.252;2023-02-08T10:01:47;103668.44;;;2.59;65.85
16120;BME280;12670;53.502;10.252;2023-02-08T10:04:57;103672.38;;;2.70;64.74
16120;BME280;12670;53.502;10.252;2023-02-08T10:08:01;103676.13;;;3.01;62.91
16120;BME280;12670;53.502;10.252;2023-02-08T10:11:19;103681.97;;;3.17;62.71
16120;BME280;12670;53.502;10.252;2023-02-08T10:14:42;103668.50;;;3.32;63.46
16120;BME280;12670;53.502;10.252;2023-02-08T10:18:05;103667.91;;;3.66;62.91
16120;BME280;12670;53.502;10.252;2023-02-08T10:21:24;103661.91;;;4.24;60.91
16120;BME280;12670;53.502;10.252;2023-02-08T10:24:40;103664.44;;;4.50;60.16
16120;BME280;12670;53.502;10.252;2023-02-08T10:27:57;103657.44;;;4.80;56.74
16120;BME280;12670;53.502;10.252;2023-02-08T10:31:11;103659.78;;;5.33;56.99
16120;BME280;12670;53.502;10.252;2023-02-08T10:34:27;103665.47;;;4.85;57.58
16120;BME280;12670;53.502;10.252;2023-02-08T10:37:32;103665.69;;;4.63;56.85
16120;BME280;12670;53.502;10.252;2023-02-08T10:40:38;103658.59;;;4.30;58.69
16120;BME280;12670;53.502;10.252;2023-02-08T10:43:44;103660.50;;;4.07;59.92
16120;BME280;12670;53.502;10.252;2023-02-08T10:46:55;103668.53;;;4.12;60.91
16120;BME280;12670;53.502;10.252;2023-02-08T10:50:06;103674.00;;;4.46;57.87
16120;BME280;12670;53.502;10.252;2023-02-08T10:53:13;103676.94;;;4.87;54.79
16120;BME280;12670;53.502;10.252;2023-02-08T10:56:33;103668.50;;;6.77;50.72
16120;BME280;12670;53.502;10.252;2023-02-08T10:59:45;103666.31;;;7.98;48.51
16120;BME280;12670;53.502;10.252;2023-02-08T11:02:51;103665.16;;;8.38;43.84
16120;BME280;12670;53.502;10.252;2023-02-08T11:05:54;103658.69;;;8.80;44.51
16120;BME280;12670;53.502;10.252;2023-02-08T11:08:57;103657.53;;;8.58;43.82
16120;BME280;12670;53.502;10.252;2023-02-08T11:12:00;103652.78;;;9.04;45.13
16120;BME280;12670;53.502;10.252;2023-02-08T11:15:04;103641.09;;;9.76;44.61
16120;BME280;12670;53.502;10.252;2023-02-08T11:18:20;103651.97;;;10.08;40.97
16120;BME280;12670;53.502;10.252;2023-02-08T11:21:26;103658.66;;;11.16;40.15
16120;BME280;12670;53.502;10.252;2023-02-08T11:24:32;103644.53;;;11.58;38.30
16120;BME280;12670;53.502;10.252;2023-02-08T11:27:47;103637.44;;;11.75;37.77
16120;BME280;12670;53.502;10.252;2023-02-08T11:31:01;103634.75;;;11.66;36.23
16120;BME280;12670;53.502;10.252;2023-02-08T11:34:06;103624.16;;;11.68;36.25
16120;BME280;12670;53.502;10.252;2023-02-08T11:37:14;103631.09;;;12.51;36.26
16120;BME280;12670;53.502;10.252;2023-02-08T11:40:20;103619.47;;;12.65;37.38
16120;BME280;12670;53.502;10.252;2023-02-08T11:43:27;103632.59;;;13.01;36.44
16120;BME280;12670;53.502;10.252;2023-02-08T11:46:32;103623.84;;;12.86;34.15
16120;BME280;12670;53.502;10.252;2023-02-08T11:49:38;103623.94;;;12.60;36.38
16120;BME280;12670;53.502;10.252;2023-02-08T11:52:42;103618.78;;;11.31;39.29
16120;BME280;12670;53.502;10.252;2023-02-08T11:56:00;103614.00;;;10.20;40.54
16120;BME280;12670;53.502;10.252;2023-02-08T11:59:16;103620.94;;;8.98;40.38
16120;BME280;12670;53.502;10.252;2023-02-08T12:02:29;103615.91;;;8.45;44.45
16120;BME280;12670;53.502;10.252;2023-02-08T12:05:40;103620.25;;;7.84;46.39
16120;BME280;12670;53.502;10.252;2023-02-08T12:08:50;103610.78;;;7.43;47.00
16120;BME280;12670;53.502;10.252;2023-02-08T12:12:03;103614.84;;;7.21;46.67
16120;BME280;12670;53.502;10.252;2023-02-08T12:15:17;103609.19;;;7.03;47.74
16120;BME280;12670;53.502;10.252;2023-02-08T12:18:42;103603.91;;;7.03;47.63
16120;BME280;12670;53.502;10.252;2023-02-08T12:21:55;103600.97;;;7.35;48.09
16120;BME280;12670;53.502;10.252;2023-02-08T12:25:13;103599.16;;;7.32;43.97
16120;BME280;12670;53.502;10.252;2023-02-08T12:28:26;103587.50;;;8.33;44.62
16120;BME280;12670;53.502;10.252;2023-02-08T12:31:43;103585.09;;;8.51;41.50
16120;BME280;12670;53.502;10.252;2023-02-08T12:35:01;103577.75;;;8.31;42.05
16120;BME280;12670;53.502;10.252;2023-02-08T12:38:13;103557.56;;;8.36;42.14
16120;BME280;12670;53.502;10.252;2023-02-08T12:41:45;103562.72;;;8.28;41.85
16120;BME280;12670;53.502;10.252;2023-02-08T12:45:02;103555.75;;;7.69;40.76
16120;BME280;12670;53.502;10.252;2023-02-08T12:48:22;103554.78;;;7.66;41.71
16120;BME280;12670;53.502;10.252;2023-02-08T12:51:35;103541.50;;;8.22;42.72
16120;BME280;12670;53.502;10.252;2023-02-08T12:54:45;103523.94;;;9.14;40.63
16120;BME280;12670;53.502;10.252;2023-02-08T12:57:53;103526.88;;;9.46;39.00
16120;BME280;12670;53.502;10.252;2023-02-08T13:01:01;103519.56;;;10.94;37.46
16120;BME280;12670;53.502;10.252;2023-02-08T13:04:12;103527.19;;;12.58;35.88
16120;BME280;12670;53.502;10.252;2023-02-08T13:07:20;103513.13;;;13.52;33.62
16120;BME280;12670;53.502;10.252;2023-02-08T13:10:30;103517.97;;;14.01;33.69
16120;BME280;12670;53.502;10.252;2023-02-08T13:13:37;103513.50;;;14.02;33.24
16120;BME280;12670;53.502;10.252;2023-02-08T13:16:43;103513.25;;;14.22;32.98
16120;BME280;12670;53.502;10.252;2023-02-08T13:19:55;103502.38;;;13.62;31.90
16120;BME280;12670;53.502;10.252;2023-02-08T13:23:03;103490.16;;;14.19;34.04
16120;BME280;12670;53.502;10.252;2023-02-08T13:26:13;103486.19;;;15.05;32.00
16120;BME280;12670;53.502;10.252;2023-02-08T13:29:18;103483.88;;;16.25;30.04
16120;BME280;12670;53.502;10.252;2023-02-08T13:32:24;103473.09;;;16.67;28.58
16120;BME280;12670;53.502;10.252;2023-02-08T13:35:31;103477.47;;;16.73;28.42
16120;BME280;12670;53.502;10.252;2023-02-08T13:38:35;103468.59;;;17.07;28.37
16120;BME280;12670;53.502;10.252;2023-02-08T13:41:50;103463.22;;;17.05;27.05
16120;BME280;12670;53.502;10.252;2023-02-08T13:44:55;103464.38;;;17.30;27.78
16120;BME280;12670;53.502;10.252;2023-02-08T13:48:00;103463.78;;;17.19;26.89
16120;BME280;12670;53.502;10.252;2023-02-08T13:51:04;103462.72;;;16.53;28.23
16120;BME280;12670;53.502;10.252;2023-02-08T13:54:10;103463.19;;;15.45;29.69
16120;BME280;12670;53.502;10.252;2023-02-08T13:57:51;103449.81;;;14.96;30.65
16120;BME280;12670;53.502;10.252;2023-02-08T14:01:05;103449.03;;;14.88;31.38
16120;BME280;12670;53.502;10.252;2023-02-08T14:04:29;103445.25;;;14.49;31.46
16120;BME280;12670;53.502;10.252;2023-02-08T14:07:41;103451.34;;;13.89;32.24
16120;BME280;12670;53.502;10.252;2023-02-08T14:10:50;103441.81;;;13.70;32.97
16120;BME280;12670;53.502;10.252;2023-02-08T14:14:05;103441.25;;;13.40;33.38
16120;BME280;12670;53.502;10.252;2023-02-08T14:17:18;103435.53;;;12.85;33.56
16120;BME280;12670;53.502;10.252;2023-02-08T14:20:27;103432.34;;;12.38;35.78
16120;BME280;12670;53.502;10.252;2023-02-08T14:23:34;103443.22;;;11.97;37.45
16120;BME280;12670;53.502;10.252;2023-02-08T14:26:40;103441.38;;;12.08;37.47
16120;BME280;12670;53.502;10.252;2023-02-08T14:29:54;103438.88;;;11.58;38.53
16120;BME280;12670;53.502;10.252;2023-02-08T14:33:11;103434.50;;;11.35;38.98
16120;BME280;12670;53.502;10.252;2023-02-08T14:36:24;103426.59;;;10.86;39.86
16120;BME280;12670;53.502;10.252;2023-02-08T14:39:30;103424.81;;;10.90;41.43
16120;BME280;12670;53.502;10.252;2023-02-08T14:42:53;103413.31;;;10.80;41.15
16120;BME280;12670;53.502;10.252;2023-02-08T14:49:42;103420.16;;;9.83;42.37
16120;BME280;12670;53.502;10.252;2023-02-08T14:52:50;103412.75;;;9.15;44.15
16120;BME280;12670;53.502;10.252;2023-02-08T14:55:58;103408.66;;;8.49;45.44
16120;BME280;12670;53.502;10.252;2023-02-08T14:59:05;103408.28;;;8.15;47.99
16120;BME280;12670;53.502;10.252;2023-02-08T15:02:13;103410.34;;;7.68;47.09
16120;BME280;12670;53.502;10.252;2023-02-08T15:05:23;103404.16;;;7.66;50.86
16120;BME280;12670;53.502;10.252;2023-02-08T15:08:27;103393.53;;;7.61;49.92
16120;BME280;12670;53.502;10.252;2023-02-08T15:11:31;103392.97;;;7.87;50.24
16120;BME280;12670;53.502;10.252;2023-02-08T15:14:35;103386.06;;;7.99;50.39
16120;BME280;12670;53.502;10.252;2023-02-08T15:17:43;103385.59;;;7.60;49.28
16120;BME280;12670;53.502;10.252;2023-02-08T15:20:59;103388.63;;;7.25;51.14
16120;BME280;12670;53.502;10.252;2023-02-08T15:24:10;103383.06;;;7.04;51.25
16120;BME280;12670;53.502;10.252;2023-02-08T15:27:19;103375.59;;;6.78;51.42
16120;BME280;12670;53.502;10.252;2023-02-08T15:30:24;103372.97;;;6.77;53.16
16120;BME280;12670;53.502;10.252;2023-02-08T15:33:27;103372.78;;;6.67;53.53
16120;BME280;12670;53.502;10.252;2023-02-08T15:36:32;103365.16;;;6.33;54.34
16120;BME280;12670;53.502;10.252;2023-02-08T15:39:36;103355.25;;;6.20;55.66
16120;BME280;12670;53.502;10.252;2023-02-08T15:42:42;103352.47;;;6.10;56.39
16120;BME280;12670;53.502;10.252;2023-02-08T15:45:55;103354.25;;;6.11;56.38
16120;BME280;12670;53.502;10.252;2023-02-08T15:48:58;103354.28;;;6.14;56.14
16120;BME280;12670;53.502;10.252;2023-02-08T15:52:03;103352.59;;;6.17;56.81
16120;BME280;12670;53.502;10.252;2023-02-08T15:55:07;103353.81;;;5.90;57.30
16120;BME280;12670;53.502;10.252;2023-02-08T15:58:18;103345.84;;;5.87;56.33
16120;BME280;12670;53.502;10.252;2023-02-08T16:01:29;103339.88;;;5.94;57.73
16120;BME280;12670;53.502;10.252;2023-02-08T16:04:41;103350.72;;;5.67;57.11
16120;BME280;12670;53.502;10.252;2023-02-08T16:07:46;103348.66;;;5.52;58.58
16120;BME280;12670;53.502;10.252;2023-02-08T16:10:51;103343.81;;;5.74;58.39
16120;BME280;12670;53.502;10.252;2023-02-08T16:13:56;103348.19;;;5.72;59.81
16120;BME280;12670;53.502;10.252;2023-02-08T16:16:59;103346.97;;;5.56;58.93
16120;BME280;12670;53.502;10.252;2023-02-08T16:20:20;103352.94;;;5.47;58.72
16120;BME280;12670;53.502;10.252;2023-02-08T16:23:26;103359.78;;;5.39;58.12